createdAt,value
2018-07-07T00:01:18.802Z,99034.00
2018-07-07T00:03:47.350Z,99035.00
2018-07-07T00:06:16.713Z,99026.00
2018-07-07T00:08:45.814Z,99038.00
2018-07-07T00:11:14.229Z,99031.00
2018-07-07T00:13:42.650Z,99036.00
2018-07-07T00:16:11.060Z,99037.00
2018-07-07T00:18:39.478Z,99037.00
2018-07-07T00:21:07.910Z,99042.00
2018-07-07T00:23:36.493Z,99047.00
2018-07-07T00:26:04.918Z,99039.00
2018-07-07T00:28:33.343Z,99050.00
2018-07-07T00:31:01.789Z,99062.00
2018-07-07T00:33:30.205Z,99052.00
2018-07-07T00:35:58.623Z,99059.00
2018-07-07T00:38:27.041Z,99058.00
2018-07-07T00:40:55.541Z,99048.00
2018-07-07T00:43:23.972Z,99054.00
2018-07-07T00:45:52.470Z,99061.00
2018-07-07T00:48:21.042Z,99057.00
2018-07-07T00:50:49.533Z,99065.00
2018-07-07T00:53:19.414Z,99067.00
2018-07-07T00:55:47.830Z,99067.00
2018-07-07T00:58:16.648Z,99063.00
2018-07-07T01:00:48.516Z,99076.00
2018-07-07T01:03:18.097Z,99069.00
2018-07-07T01:05:47.423Z,99066.00
2018-07-07T01:08:16.633Z,99065.00
2018-07-07T01:10:45.705Z,99060.00
2018-07-07T01:13:14.822Z,99062.00
2018-07-07T01:15:43.522Z,99069.00
2018-07-07T01:18:11.946Z,99064.00
2018-07-07T01:20:40.401Z,99070.00
2018-07-07T01:23:08.668Z,99065.00
2018-07-07T01:25:37.105Z,99065.00
2018-07-07T01:28:05.738Z,99073.00
2018-07-07T01:30:34.189Z,99078.00
2018-07-07T01:33:02.628Z,99084.00
2018-07-07T01:35:31.089Z,99084.00
2018-07-07T01:37:59.508Z,99093.00
2018-07-07T01:40:28.118Z,99092.00
2018-07-07T01:42:56.547Z,99088.00
2018-07-07T01:45:24.973Z,99093.00
2018-07-07T01:47:53.390Z,99092.00
2018-07-07T01:50:21.832Z,99093.00
2018-07-07T01:52:50.286Z,99096.00
2018-07-07T01:55:18.732Z,99096.00
2018-07-07T01:57:48.292Z,99093.00
2018-07-07T02:00:17.442Z,99095.00
2018-07-07T02:02:46.769Z,99089.00
2018-07-07T02:05:15.749Z,99094.00
2018-07-07T02:07:44.162Z,99097.00
2018-07-07T02:10:12.571Z,99097.00
2018-07-07T02:12:40.998Z,99094.00
2018-07-07T02:15:09.542Z,99097.00
2018-07-07T02:17:37.975Z,99098.00
2018-07-07T02:20:06.447Z,99090.00
2018-07-07T02:22:34.921Z,99105.00
2018-07-07T02:25:03.359Z,99102.00
2018-07-07T02:27:31.775Z,99113.00
2018-07-07T02:30:00.201Z,99104.00
2018-07-07T02:32:28.635Z,99101.00
2018-07-07T02:34:57.060Z,99102.00
2018-07-07T02:37:25.471Z,99098.00
2018-07-07T02:39:53.898Z,99100.00
2018-07-07T02:42:22.308Z,99107.00
2018-07-07T02:44:50.741Z,99099.00
2018-07-07T02:47:19.174Z,99097.00
2018-07-07T02:49:48.817Z,99100.00
2018-07-07T02:52:17.984Z,99103.00
2018-07-07T02:54:47.585Z,99098.00
2018-07-07T02:57:16.608Z,99102.00
2018-07-07T02:59:45.946Z,99098.00
2018-07-07T03:02:14.370Z,99108.00
2018-07-07T03:04:42.790Z,99104.00
2018-07-07T03:07:11.044Z,99100.00
2018-07-07T03:09:39.506Z,99110.00
2018-07-07T03:12:07.933Z,99115.00
2018-07-07T03:14:36.368Z,99116.00
2018-07-07T03:17:04.805Z,99118.00
2018-07-07T03:19:33.232Z,99126.00
2018-07-07T03:22:01.683Z,99138.00
2018-07-07T03:24:30.132Z,99126.00
2018-07-07T03:26:58.545Z,99131.00
2018-07-07T03:29:27.091Z,99127.00
2018-07-07T03:31:55.524Z,99132.00
2018-07-07T03:34:24.008Z,99129.00
2018-07-07T03:36:52.442Z,99130.00
2018-07-07T03:39:20.889Z,99137.00
2018-07-07T03:41:49.301Z,99141.00
2018-07-07T03:44:18.908Z,99140.00
2018-07-07T03:46:48.014Z,99144.00
2018-07-07T03:49:17.580Z,99147.00
2018-07-07T03:51:46.808Z,99146.00
2018-07-07T03:54:15.733Z,99147.00
2018-07-07T03:56:44.141Z,99147.00
2018-07-07T03:59:12.590Z,99141.00
2018-07-07T04:01:40.753Z,99152.00
2018-07-07T04:04:08.940Z,99153.00
2018-07-07T04:06:37.365Z,99150.00
2018-07-07T04:09:06.441Z,99139.00
2018-07-07T04:11:34.906Z,99147.00
2018-07-07T04:14:03.338Z,99136.00
2018-07-07T04:16:32.565Z,99138.00
2018-07-07T04:19:01.742Z,99143.00
2018-07-07T04:21:30.888Z,99138.00
2018-07-07T04:23:59.306Z,99151.00
2018-07-07T04:26:27.761Z,99135.00
2018-07-07T04:28:56.178Z,99144.00
2018-07-07T04:31:24.748Z,99149.00
2018-07-07T04:33:53.353Z,99147.00
2018-07-07T04:36:21.887Z,99149.00
2018-07-07T04:38:50.944Z,99150.00
2018-07-07T04:41:23.734Z,99159.00
2018-07-07T04:43:52.368Z,99158.00
2018-07-07T04:46:22.172Z,99163.00
2018-07-07T04:48:52.028Z,99159.00
2018-07-07T04:51:22.399Z,99157.00
2018-07-07T04:53:51.963Z,99152.00
2018-07-07T04:56:21.547Z,99151.00
2018-07-07T04:58:51.533Z,99147.00
2018-07-07T05:01:22.453Z,99157.00
2018-07-07T05:03:52.197Z,99158.00
2018-07-07T05:06:20.653Z,99165.00
2018-07-07T05:08:49.065Z,99155.00
2018-07-07T05:11:17.485Z,99160.00
2018-07-07T05:13:45.952Z,99155.00
2018-07-07T05:16:14.461Z,99156.00
2018-07-07T05:18:43.050Z,99159.00
2018-07-07T05:21:11.490Z,99156.00
2018-07-07T05:23:39.929Z,99166.00
2018-07-07T05:26:08.369Z,99159.00
2018-07-07T05:28:36.826Z,99154.00
2018-07-07T05:31:05.251Z,99149.00
2018-07-07T05:33:33.725Z,99155.00
2018-07-07T05:36:03.122Z,99168.00
2018-07-07T05:38:32.712Z,99149.00
2018-07-07T05:41:01.766Z,99167.00
2018-07-07T05:43:30.873Z,99154.00
2018-07-07T05:45:59.320Z,99153.00
2018-07-07T05:48:27.743Z,99153.00
2018-07-07T05:50:56.159Z,99165.00
2018-07-07T05:53:24.591Z,99156.00
2018-07-07T05:55:52.780Z,99166.00
2018-07-07T05:58:22.618Z,99160.00
2018-07-07T06:00:51.203Z,99165.00
2018-07-07T06:03:19.762Z,99161.00
2018-07-07T06:05:49.564Z,99166.00
2018-07-07T06:08:18.478Z,99159.00
2018-07-07T06:10:47.660Z,99165.00
2018-07-07T06:13:17.729Z,99165.00
2018-07-07T06:15:46.417Z,99156.00
2018-07-07T06:18:14.893Z,99161.00
2018-07-07T06:20:43.303Z,99159.00
2018-07-07T06:23:11.823Z,99159.00
2018-07-07T06:25:40.277Z,99173.00
2018-07-07T06:28:08.435Z,99166.00
2018-07-07T06:30:36.948Z,99164.00
2018-07-07T06:33:05.373Z,99171.00
2018-07-07T06:35:33.898Z,99167.00
2018-07-07T06:38:02.685Z,99167.00
2018-07-07T06:40:32.297Z,99163.00
2018-07-07T06:43:01.316Z,99160.00
2018-07-07T06:45:29.747Z,99160.00
2018-07-07T06:47:58.305Z,99158.00
2018-07-07T06:50:26.851Z,99161.00
2018-07-07T06:52:55.277Z,99152.00
2018-07-07T06:55:23.695Z,99154.00
2018-07-07T06:57:52.174Z,99150.00
2018-07-07T07:00:21.344Z,99147.00
2018-07-07T07:02:49.918Z,99147.00
2018-07-07T07:05:18.386Z,99150.00
2018-07-07T07:07:46.850Z,99147.00
2018-07-07T07:10:15.308Z,99152.00
2018-07-07T07:12:43.747Z,99150.00
2018-07-07T07:15:12.210Z,99149.00
2018-07-07T07:17:40.663Z,99151.00
2018-07-07T07:20:09.106Z,99154.00
2018-07-07T07:22:37.633Z,99143.00
2018-07-07T07:25:06.333Z,99151.00
2018-07-07T07:27:34.913Z,99152.00
2018-07-07T07:30:04.206Z,99154.00
2018-07-07T07:32:33.933Z,99152.00
2018-07-07T07:35:02.454Z,99159.00
2018-07-07T07:37:31.855Z,99156.00
2018-07-07T07:40:00.398Z,99147.00
2018-07-07T07:42:28.847Z,99150.00
2018-07-07T07:44:57.429Z,99150.00
2018-07-07T07:47:25.930Z,99147.00
2018-07-07T07:49:54.387Z,99149.00
2018-07-07T07:52:22.845Z,99146.00
2018-07-07T07:54:51.268Z,99155.00
2018-07-07T07:57:19.791Z,99154.00
2018-07-07T07:59:48.360Z,99149.00
2018-07-07T08:02:16.787Z,99148.00
2018-07-07T08:04:45.213Z,99140.00
2018-07-07T08:07:13.644Z,99150.00
2018-07-07T08:09:42.080Z,99150.00
2018-07-07T08:12:10.518Z,99150.00
2018-07-07T08:14:38.952Z,99137.00
2018-07-07T08:17:07.387Z,99136.00
2018-07-07T08:19:35.830Z,99137.00
2018-07-07T08:22:04.265Z,99144.00
2018-07-07T08:24:33.697Z,99134.00
2018-07-07T08:27:03.256Z,99144.00
2018-07-07T08:29:31.720Z,99139.00
2018-07-07T08:32:01.091Z,99140.00
2018-07-07T08:34:29.581Z,99142.00
2018-07-07T08:36:57.965Z,99143.00
2018-07-07T08:39:26.445Z,99148.00
2018-07-07T08:41:54.908Z,99139.00
2018-07-07T08:44:23.338Z,99136.00
2018-07-07T08:46:51.777Z,99134.00
2018-07-07T08:49:20.234Z,99141.00
2018-07-07T08:51:48.718Z,99142.00
2018-07-07T08:54:17.188Z,99137.00
2018-07-07T08:56:45.618Z,99123.00
2018-07-07T08:59:14.194Z,99136.00
2018-07-07T09:01:42.609Z,99138.00
2018-07-07T09:04:11.020Z,99130.00
2018-07-07T09:06:39.621Z,99142.00
2018-07-07T09:09:08.041Z,99140.00
2018-07-07T09:11:36.456Z,99134.00
2018-07-07T09:14:04.868Z,99140.00
2018-07-07T09:16:33.494Z,99131.00
2018-07-07T09:19:02.990Z,99133.00
2018-07-07T09:21:32.634Z,99131.00
2018-07-07T09:24:01.753Z,99131.00
2018-07-07T09:26:30.874Z,99128.00
2018-07-07T09:28:59.465Z,99131.00
2018-07-07T09:31:27.893Z,99129.00
2018-07-07T09:33:56.610Z,99126.00
2018-07-07T09:36:25.222Z,99122.00
2018-07-07T09:38:53.736Z,99126.00
2018-07-07T09:41:22.185Z,99125.00
2018-07-07T09:43:50.720Z,99132.00
2018-07-07T09:46:19.209Z,99124.00
2018-07-07T09:48:47.634Z,99123.00
2018-07-07T09:51:16.168Z,99126.00
2018-07-07T09:53:44.612Z,99129.00
2018-07-07T09:56:13.358Z,99125.00
2018-07-07T09:58:41.974Z,99115.00
2018-07-07T10:01:10.387Z,99113.00
2018-07-07T10:03:38.851Z,99119.00
2018-07-07T10:06:07.285Z,99108.00
2018-07-07T10:08:35.706Z,99109.00
2018-07-07T10:11:04.141Z,99118.00
2018-07-07T10:13:34.057Z,99113.00
2018-07-07T10:16:03.393Z,99118.00
2018-07-07T10:18:33.378Z,99120.00
2018-07-07T10:21:03.793Z,99103.00
2018-07-07T10:23:32.397Z,99111.00
2018-07-07T10:26:01.734Z,99106.00
2018-07-07T10:28:30.883Z,99110.00
2018-07-07T10:30:59.326Z,99099.00
2018-07-07T10:33:27.768Z,99102.00
2018-07-07T10:35:56.068Z,99097.00
2018-07-07T10:38:24.544Z,99110.00
2018-07-07T10:40:52.987Z,99100.00
2018-07-07T10:43:21.530Z,99120.00
2018-07-07T10:45:50.111Z,99100.00
2018-07-07T10:48:18.432Z,99098.00
2018-07-07T10:50:46.851Z,99092.00
2018-07-07T10:53:15.285Z,99090.00
2018-07-07T10:55:43.722Z,99088.00
2018-07-07T10:58:12.155Z,99092.00
2018-07-07T11:00:40.592Z,99084.00
2018-07-07T11:03:09.022Z,99080.00
2018-07-07T11:05:37.549Z,99083.00
2018-07-07T11:08:06.410Z,99080.00
2018-07-07T11:10:35.043Z,99079.00
2018-07-07T11:13:03.530Z,99081.00
2018-07-07T11:15:33.037Z,99080.00
2018-07-07T11:18:02.528Z,99073.00
2018-07-07T11:20:31.904Z,99075.00
2018-07-07T11:23:00.911Z,99075.00
2018-07-07T11:25:29.731Z,99073.00
2018-07-07T11:27:58.162Z,99076.00
2018-07-07T11:30:26.750Z,99057.00
2018-07-07T11:32:55.558Z,99067.00
2018-07-07T11:35:23.714Z,99062.00
2018-07-07T11:37:53.446Z,99061.00
2018-07-07T11:40:21.900Z,99063.00
2018-07-07T11:42:51.253Z,99060.00
2018-07-07T11:45:19.737Z,99063.00
2018-07-07T11:47:48.302Z,99059.00
2018-07-07T11:50:16.848Z,99051.00
2018-07-07T11:52:45.817Z,99061.00
2018-07-07T11:55:14.859Z,99057.00
2018-07-07T11:57:44.052Z,99054.00
2018-07-07T12:00:12.698Z,99055.00
2018-07-07T12:02:41.848Z,99050.00
2018-07-07T12:05:11.209Z,99054.00
2018-07-07T12:07:40.343Z,99052.00
2018-07-07T12:10:09.430Z,99050.00
2018-07-07T12:12:38.000Z,99051.00
2018-07-07T12:15:06.986Z,99047.00
2018-07-07T12:17:35.641Z,99044.00
2018-07-07T12:20:04.188Z,99043.00
2018-07-07T12:22:32.672Z,99043.00
2018-07-07T12:25:01.714Z,99039.00
2018-07-07T12:27:30.413Z,99031.00
2018-07-07T12:29:59.933Z,99041.00
2018-07-07T12:32:28.778Z,99039.00
2018-07-07T12:34:57.331Z,99033.00
2018-07-07T12:37:25.927Z,99032.00
2018-07-07T12:39:54.684Z,99035.00
2018-07-07T12:42:23.679Z,99037.00
2018-07-07T12:44:52.499Z,99027.00
2018-07-07T12:47:21.263Z,99033.00
2018-07-07T12:49:49.982Z,99019.00
2018-07-07T12:52:18.523Z,99026.00
2018-07-07T12:54:46.995Z,99016.00
2018-07-07T12:57:15.555Z,99016.00
2018-07-07T12:59:44.230Z,99020.00
2018-07-07T13:02:12.690Z,99018.00
2018-07-07T13:04:41.141Z,99013.00
2018-07-07T13:07:09.614Z,99009.00
2018-07-07T13:09:38.128Z,99008.00
2018-07-07T13:12:06.818Z,98996.00
2018-07-07T13:14:35.193Z,99003.00
2018-07-07T13:17:03.465Z,99004.00
2018-07-07T13:19:33.047Z,98994.00
2018-07-07T13:22:02.474Z,99007.00
2018-07-07T13:24:31.710Z,99007.00
2018-07-07T13:27:00.818Z,99003.00
2018-07-07T13:29:29.298Z,99003.00
2018-07-07T13:31:57.867Z,99003.00
2018-07-07T13:34:26.304Z,99004.00
2018-07-07T13:36:54.817Z,99001.00
2018-07-07T13:39:23.318Z,98999.00
2018-07-07T13:41:51.795Z,99007.00
2018-07-07T13:44:20.251Z,99001.00
2018-07-07T13:46:48.737Z,99009.00
2018-07-07T13:49:17.170Z,98988.00
2018-07-07T13:51:45.641Z,98994.00
2018-07-07T13:54:15.226Z,98995.00
2018-07-07T13:56:43.824Z,98991.00
2018-07-07T13:59:12.385Z,98998.00
2018-07-07T14:01:41.451Z,98994.00
2018-07-07T14:04:10.640Z,98995.00
2018-07-07T14:06:39.919Z,98995.00
2018-07-07T14:09:09.709Z,98986.00
2018-07-07T14:11:38.004Z,99001.00
2018-07-07T14:14:06.502Z,98975.00
2018-07-07T14:16:35.220Z,98980.00
2018-07-07T14:19:03.666Z,98980.00
2018-07-07T14:21:33.540Z,98992.00
2018-07-07T14:24:02.281Z,98988.00
2018-07-07T14:26:30.936Z,98986.00
2018-07-07T14:28:59.372Z,98986.00
2018-07-07T14:31:27.876Z,98988.00
2018-07-07T14:33:57.041Z,98983.00
2018-07-07T14:36:25.576Z,98985.00
2018-07-07T14:38:54.069Z,98974.00
2018-07-07T14:41:23.306Z,98978.00
2018-07-07T14:43:56.957Z,98977.00
2018-07-07T14:46:25.983Z,98983.00
2018-07-07T14:48:54.424Z,98986.00
2018-07-07T14:51:23.037Z,98976.00
2018-07-07T14:53:51.682Z,98982.00
2018-07-07T14:56:21.515Z,98984.00
2018-07-07T14:58:50.170Z,98983.00
2018-07-07T15:01:18.949Z,98970.00
2018-07-07T15:03:48.282Z,98975.00
2018-07-07T15:06:16.897Z,98969.00
2018-07-07T15:08:45.403Z,98967.00
2018-07-07T15:11:14.709Z,98964.00
2018-07-07T15:13:43.296Z,98964.00
2018-07-07T15:16:11.857Z,98964.00
2018-07-07T15:18:40.274Z,98965.00
2018-07-07T15:21:08.912Z,98965.00
2018-07-07T15:23:37.350Z,98962.00
2018-07-07T15:26:06.126Z,98964.00
2018-07-07T15:28:34.561Z,98967.00
2018-07-07T15:31:04.087Z,98960.00
2018-07-07T15:33:33.661Z,98965.00
2018-07-07T15:36:03.312Z,98969.00
2018-07-07T15:38:32.449Z,98968.00
2018-07-07T15:41:06.109Z,98960.00
2018-07-07T15:43:35.537Z,98960.00
2018-07-07T15:46:04.299Z,98965.00
2018-07-07T15:48:34.202Z,98950.00
2018-07-07T15:51:03.657Z,98961.00
2018-07-07T15:53:33.453Z,98946.00
2018-07-07T15:56:03.327Z,98951.00
2018-07-07T15:58:32.762Z,98944.00
2018-07-07T16:01:01.681Z,98945.00
2018-07-07T16:03:30.927Z,98948.00
2018-07-07T16:05:59.410Z,98945.00
2018-07-07T16:08:27.835Z,98943.00
2018-07-07T16:10:56.274Z,98934.00
2018-07-07T16:13:24.788Z,98939.00
2018-07-07T16:15:53.340Z,98933.00
2018-07-07T16:18:21.992Z,98939.00
2018-07-07T16:20:50.420Z,98933.00
2018-07-07T16:23:18.882Z,98930.00
2018-07-07T16:25:47.990Z,98931.00
2018-07-07T16:28:16.493Z,98935.00
2018-07-07T16:30:46.635Z,98928.00
2018-07-07T16:33:15.476Z,98925.00
2018-07-07T16:35:43.941Z,98928.00
2018-07-07T16:38:12.442Z,98923.00
2018-07-07T16:40:41.034Z,98911.00
2018-07-07T16:43:10.276Z,98917.00
2018-07-07T16:45:39.426Z,98918.00
2018-07-07T16:48:08.946Z,98917.00
2018-07-07T16:50:38.120Z,98921.00
2018-07-07T16:53:07.226Z,98925.00
2018-07-07T16:55:36.495Z,98919.00
2018-07-07T16:58:05.334Z,98919.00
2018-07-07T17:00:35.013Z,98931.00
2018-07-07T17:03:05.654Z,98926.00
2018-07-07T17:05:34.177Z,98914.00
2018-07-07T17:08:04.002Z,98926.00
2018-07-07T17:10:33.877Z,98916.00
2018-07-07T17:13:02.446Z,98923.00
2018-07-07T17:15:32.612Z,98914.00
2018-07-07T17:18:03.129Z,98920.00
2018-07-07T17:20:32.596Z,98922.00
2018-07-07T17:23:01.683Z,98924.00
2018-07-07T17:25:30.914Z,98916.00
2018-07-07T17:27:59.431Z,98918.00
2018-07-07T17:30:28.131Z,98920.00
2018-07-07T17:32:57.173Z,98923.00
2018-07-07T17:35:25.637Z,98916.00
2018-07-07T17:37:54.328Z,98919.00
2018-07-07T17:40:22.853Z,98925.00
2018-07-07T17:42:51.373Z,98923.00
2018-07-07T17:45:19.954Z,98915.00
2018-07-07T17:47:48.505Z,98917.00
2018-07-07T17:50:17.090Z,98919.00
2018-07-07T17:52:45.772Z,98912.00
2018-07-07T17:55:16.998Z,98916.00
2018-07-07T17:57:46.037Z,98911.00
2018-07-07T18:00:15.886Z,98922.00
2018-07-07T18:02:45.695Z,98922.00
2018-07-07T18:05:14.402Z,98913.00
2018-07-07T18:07:43.041Z,98919.00
2018-07-07T18:10:11.790Z,98920.00
2018-07-07T18:12:40.475Z,98929.00
2018-07-07T18:15:09.149Z,98925.00
2018-07-07T18:17:37.849Z,98924.00
2018-07-07T18:20:06.718Z,98914.00
2018-07-07T18:22:35.663Z,98920.00
2018-07-07T18:25:04.253Z,98921.00
2018-07-07T18:27:33.989Z,98926.00
2018-07-07T18:30:03.826Z,98923.00
2018-07-07T18:32:33.801Z,98928.00
2018-07-07T18:35:02.418Z,98930.00
2018-07-07T18:37:31.520Z,98935.00
2018-07-07T18:40:02.285Z,98928.00
2018-07-07T18:42:30.949Z,98929.00
2018-07-07T18:44:59.484Z,98938.00
2018-07-07T18:47:27.971Z,98926.00
2018-07-07T18:49:57.462Z,98930.00
2018-07-07T18:52:26.298Z,98933.00
2018-07-07T18:54:54.881Z,98937.00
2018-07-07T18:57:23.559Z,98943.00
2018-07-07T18:59:52.088Z,98943.00
2018-07-07T19:02:20.517Z,98941.00
2018-07-07T19:04:49.765Z,98943.00
2018-07-07T19:07:18.278Z,98944.00
2018-07-07T19:09:46.714Z,98938.00
2018-07-07T19:12:15.336Z,98937.00
2018-07-07T19:14:43.880Z,98942.00
2018-07-07T19:17:12.769Z,98943.00
2018-07-07T19:19:41.456Z,98945.00
2018-07-07T19:22:15.407Z,98950.00
2018-07-07T19:24:49.606Z,98949.00
2018-07-07T19:27:18.107Z,98956.00
2018-07-07T19:29:46.678Z,98957.00
2018-07-07T19:32:20.658Z,98959.00
2018-07-07T19:34:54.574Z,98958.00
2018-07-07T19:37:23.340Z,98964.00
2018-07-07T19:39:51.784Z,98968.00
2018-07-07T19:42:20.297Z,98972.00
2018-07-07T19:44:48.937Z,98983.00
2018-07-07T19:47:17.440Z,98976.00
2018-07-07T19:49:45.878Z,98990.00
2018-07-07T19:52:14.314Z,98994.00
2018-07-07T19:54:42.767Z,98987.00
2018-07-07T19:57:11.202Z,98995.00
2018-07-07T19:59:39.918Z,98992.00
2018-07-07T20:02:08.191Z,98993.00
2018-07-07T20:04:36.825Z,99002.00
2018-07-07T20:07:05.382Z,99006.00
2018-07-07T20:09:34.259Z,98997.00
2018-07-07T20:12:03.554Z,98996.00
2018-07-07T20:14:32.499Z,98992.00
2018-07-07T20:17:07.208Z,98996.00
2018-07-07T20:19:52.495Z,98995.00
2018-07-07T20:22:21.012Z,98999.00
2018-07-07T20:24:49.441Z,98999.00
2018-07-07T20:27:23.180Z,98999.00
2018-07-07T20:29:51.618Z,98995.00
2018-07-07T20:32:25.554Z,99001.00
2018-07-07T20:34:54.059Z,98997.00
2018-07-07T20:37:22.883Z,98997.00
2018-07-07T20:39:51.669Z,98993.00
2018-07-07T20:42:20.231Z,98998.00
2018-07-07T20:44:48.934Z,98994.00
2018-07-07T20:47:18.881Z,98998.00
2018-07-07T20:49:48.737Z,98997.00
2018-07-07T20:52:17.492Z,99003.00
2018-07-07T20:54:46.274Z,99008.00
2018-07-07T20:57:14.920Z,99000.00
2018-07-07T20:59:43.853Z,99000.00
2018-07-07T21:02:12.717Z,98997.00
2018-07-07T21:04:41.718Z,99011.00
2018-07-07T21:07:10.509Z,99013.00
2018-07-07T21:09:39.948Z,99005.00
2018-07-07T21:12:08.728Z,99011.00
2018-07-07T21:14:37.458Z,99016.00
2018-07-07T21:17:06.774Z,99011.00
2018-07-07T21:19:36.049Z,99015.00
2018-07-07T21:22:04.460Z,99015.00
2018-07-07T21:24:34.084Z,99012.00
2018-07-07T21:27:03.274Z,99019.00
2018-07-07T21:29:31.834Z,99016.00
2018-07-07T21:32:00.900Z,99021.00
2018-07-07T21:34:29.342Z,99022.00
2018-07-07T21:36:57.755Z,99027.00
2018-07-07T21:39:26.305Z,99032.00
2018-07-07T21:41:54.743Z,99031.00
2018-07-07T21:44:23.173Z,99028.00
2018-07-07T21:46:51.791Z,99031.00
2018-07-07T21:49:20.222Z,99030.00
2018-07-07T21:51:48.650Z,99021.00
2018-07-07T21:54:17.153Z,99031.00
2018-07-07T21:56:49.342Z,99022.00
2018-07-07T21:59:18.865Z,99020.00
2018-07-07T22:01:58.940Z,99019.00
2018-07-07T22:04:33.794Z,99012.00
2018-07-07T22:08:10.334Z,99027.00
2018-07-07T22:10:38.762Z,99032.00
2018-07-07T22:13:07.186Z,99020.00
2018-07-07T22:15:35.601Z,99015.00
2018-07-07T22:18:04.023Z,99021.00
2018-07-07T22:20:35.516Z,99026.00
2018-07-07T22:23:04.051Z,99031.00
2018-07-07T22:25:33.906Z,99032.00
2018-07-07T22:28:03.668Z,99029.00
2018-07-07T22:30:33.192Z,99037.00
2018-07-07T22:33:07.150Z,99034.00
2018-07-07T22:35:41.050Z,99026.00
2018-07-07T22:38:14.976Z,99029.00
2018-07-07T22:40:43.407Z,99022.00
2018-07-07T22:43:11.844Z,99032.00
2018-07-07T22:45:40.277Z,99032.00
2018-07-07T22:48:08.705Z,99034.00
2018-07-07T22:50:37.145Z,99027.00
2018-07-07T22:53:05.792Z,99026.00
2018-07-07T22:55:34.205Z,99026.00
2018-07-07T22:58:03.608Z,99025.00
2018-07-07T23:00:34.674Z,99016.00
2018-07-07T23:03:04.796Z,99031.00
2018-07-07T23:05:34.131Z,99038.00
2018-07-07T23:08:03.574Z,99036.00
2018-07-07T23:10:33.473Z,99029.00
2018-07-07T23:13:02.328Z,99034.00
2018-07-07T23:15:31.726Z,99026.00
2018-07-07T23:18:00.518Z,99040.00
2018-07-07T23:20:28.974Z,99030.00
2018-07-07T23:22:57.417Z,99038.00
2018-07-07T23:25:25.861Z,99033.00
2018-07-07T23:27:54.324Z,99027.00
2018-07-07T23:30:22.893Z,99033.00
2018-07-07T23:32:51.720Z,99029.00
2018-07-07T23:35:20.287Z,99039.00
2018-07-07T23:37:48.777Z,99043.00
2018-07-07T23:40:17.196Z,99041.00
2018-07-07T23:42:45.623Z,99042.00
2018-07-07T23:45:14.046Z,99041.00
2018-07-07T23:47:42.475Z,99048.00
2018-07-07T23:50:10.905Z,99041.00
2018-07-07T23:52:39.325Z,99033.00
2018-07-07T23:55:07.859Z,99043.00
2018-07-07T23:57:36.274Z,99040.00
